Time;durP1;ratioP1;P1;durP2;ratioP2;P2;SDS_P1;SDS_P2;PMS_P1;PMS_P2;Temp;Humidity;BMP_temperature;BMP_pressure;BME280_temperature;BME280_humidity;BME280_pressure;Samples;Min_cycle;Max_cycle;Signal;HPM_P1;HPM_P2
2022/07/07 00:00:16;;;;;;;10.07;5.90;;;;;;;20.55;73.85;100264.22;1666336;84;21006;-70
2022/07/07 00:02:43;;;;;;;7.00;5.30;;;;;;;20.44;74.19;100257.02;1665908;84;21246;-69
2022/07/07 00:05:10;;;;;;;7.63;5.13;;;;;;;20.41;74.34;100265.02;1660491;84;21115;-70
2022/07/07 00:07:36;;;;;;;7.93;5.30;;;;;;;20.39;74.50;100266.70;1661562;84;21060;-70
2022/07/07 00:10:04;;;;;;;6.57;4.90;;;;;;;20.35;74.56;100266.56;1662213;84;21008;-69
2022/07/07 00:12:31;;;;;;;6.70;5.23;;;;;;;20.33;74.38;100270.72;1667955;84;21100;-69
2022/07/07 00:14:59;;;;;;;7.80;5.17;;;;;;;20.28;74.30;100273.08;1675453;84;21562;-71
2022/07/07 00:17:26;;;;;;;5.20;4.70;;;;;;;20.40;73.83;100279.16;1671016;84;21097;-71
2022/07/07 00:19:53;;;;;;;5.90;4.73;;;;;;;20.36;73.44;100273.56;1660984;84;21556;-69
2022/07/07 00:22:19;;;;;;;6.37;5.10;;;;;;;20.33;73.05;100272.08;1661296;84;21122;-69
2022/07/07 00:24:46;;;;;;;13.60;5.03;;;;;;;20.28;72.77;100285.84;1654110;84;21556;-69
2022/07/07 00:27:13;;;;;;;5.60;4.73;;;;;;;20.23;72.87;100264.33;1660540;84;21248;-70
2022/07/07 02:29:41;;;;;;;2.43;1.40;;;;;;;18.73;67.49;100354.94;1661431;84;20994;-69
2022/07/07 02:32:08;;;;;;;2.67;1.50;;;;;;;18.72;67.58;100365.50;1660832;84;21034;-69
2022/07/07 02:34:35;;;;;;;3.07;1.50;;;;;;;18.71;67.68;100361.98;1661896;84;21066;-68
2022/07/07 02:37:01;;;;;;;1.63;1.00;;;;;;;18.76;67.77;100366.48;1662967;84;21093;-70
2022/07/07 02:39:28;;;;;;;1.77;1.13;;;;;;;18.79;67.67;100355.03;1662839;84;21133;-69
2022/07/07 04:41:46;;;;;;;2.70;1.10;;;;;;;18.96;66.81;100417.29;1655789;84;20179;-69
2022/07/07 04:44:12;;;;;;;3.17;1.20;;;;;;;19.01;66.58;100426.36;1649219;87;20999;-69
2022/07/07 04:46:39;;;;;;;1.10;1.00;;;;;;;18.85;67.00;100413.27;1670258;84;21060;-69
2022/07/07 04:49:06;;;;;;;2.60;1.23;;;;;;;18.92;67.02;100419.05;1672131;84;21054;-69
2022/07/07 04:51:34;;;;;;;1.50;1.00;;;;;;;18.84;67.44;100419.81;1670413;84;22434;-69
2022/07/07 04:54:01;;;;;;;3.07;1.33;;;;;;;19.14;66.79;100417.30;1676785;84;21127;-69
2022/07/07 04:56:28;;;;;;;2.33;1.20;;;;;;;19.24;66.29;100422.39;1673702;84;21025;-69
2022/07/07 04:58:55;;;;;;;2.47;1.50;;;;;;;19.11;66.73;100412.52;1687216;85;21116;-69
2022/07/07 05:01:21;;;;;;;1.80;0.93;;;;;;;19.12;66.56;100422.25;1679486;84;21054;-69
2022/07/07 05:03:48;;;;;;;1.93;1.30;;;;;;;19.16;66.41;100434.03;1675736;84;21250;-68
2022/07/07 05:06:15;;;;;;;3.37;1.50;;;;;;;19.15;66.18;100448.66;1680874;84;21035;-69
2022/07/07 05:08:42;;;;;;;1.90;1.33;;;;;;;19.15;66.18;100435.12;1682177;84;21144;-69
2022/07/07 05:11:09;;;;;;;1.70;1.20;;;;;;;19.20;66.26;100437.69;1681022;84;21105;-70
2022/07/07 05:13:36;;;;;;;1.43;1.07;;;;;;;19.19;66.00;100436.11;1679684;84;21028;-70
2022/07/07 05:16:05;;;;;;;4.43;1.40;;;;;;;19.16;65.99;100446.22;1665444;84;21211;-68
2022/07/07 05:18:32;;;;;;;2.63;1.30;;;;;;;19.13;65.87;100457.12;1665699;86;21702;-69
2022/07/07 05:20:58;;;;;;;2.07;1.30;;;;;;;19.12;65.71;100461.51;1665552;84;21069;-69
2022/07/07 05:23:26;;;;;;;1.63;1.27;;;;;;;19.06;65.91;100460.06;1665402;86;21058;-69
2022/07/07 05:25:53;;;;;;;2.60;1.20;;;;;;;19.03;65.98;100464.19;1665804;84;21089;-69
2022/07/07 05:28:19;;;;;;;2.53;1.27;;;;;;;19.02;65.94;100459.90;1672794;84;21225;-68
2022/07/07 05:30:46;;;;;;;2.83;1.20;;;;;;;19.22;65.65;100447.66;1664091;84;21019;-68
2022/07/07 05:33:12;;;;;;;3.23;1.53;;;;;;;18.99;66.39;100459.17;1665458;84;21393;-68
2022/07/07 05:35:39;;;;;;;3.10;1.30;;;;;;;18.97;66.40;100468.95;1660927;84;21552;-69
2022/07/07 05:38:07;;;;;;;2.53;1.23;;;;;;;18.97;66.11;100463.53;1663435;84;21121;-69
2022/07/07 05:40:34;;;;;;;2.50;1.70;;;;;;;18.98;66.28;100462.97;1661124;84;21933;-70
2022/07/07 05:43:00;;;;;;;2.67;1.63;;;;;;;19.01;66.07;100473.73;1660496;84;21349;-69
2022/07/07 05:45:26;;;;;;;3.63;2.00;;;;;;;19.00;65.83;100465.38;1660579;84;20998;-68
2022/07/07 05:47:53;;;;;;;2.20;1.70;;;;;;;18.97;65.57;100461.39;1657307;84;21065;-69
2022/07/07 05:50:20;;;;;;;3.90;1.90;;;;;;;19.14;65.34;100460.62;1660076;84;21349;-69
2022/07/07 05:52:47;;;;;;;2.53;1.97;;;;;;;19.28;64.91;100465.34;1660393;84;21151;-69
2022/07/07 05:55:14;;;;;;;3.43;2.33;;;;;;;19.34;64.77;100470.83;1660287;84;21459;-68
2022/07/07 05:57:41;;;;;;;3.37;2.30;;;;;;;19.25;64.81;100469.22;1659919;84;21054;-69
2022/07/07 06:00:08;;;;;;;3.93;2.50;;;;;;;19.39;64.72;100462.55;1659839;84;21051;-69
2022/07/07 06:02:41;;;;;;;4.40;3.20;;;;;;;19.52;64.42;100462.72;1661455;84;21033;-68
2022/07/07 06:05:08;;;;;;;3.73;2.90;;;;;;;19.59;64.01;100461.68;1661099;84;21085;-68
2022/07/07 06:07:37;;;;;;;4.90;3.00;;;;;;;19.65;64.14;100461.79;1660891;84;20951;-68
2022/07/07 06:10:06;;;;;;;3.17;2.70;;;;;;;19.70;63.80;100471.09;1660380;84;21553;-69
2022/07/07 06:12:33;;;;;;;4.03;2.80;;;;;;;19.73;63.62;100473.16;1659880;84;21069;-69
2022/07/07 06:15:00;;;;;;;3.70;2.60;;;;;;;19.63;63.91;100473.47;1664962;84;21098;-68
2022/07/07 06:17:26;;;;;;;4.03;2.67;;;;;;;19.58;64.38;100482.56;1665787;86;21175;-70
2022/07/07 06:19:53;;;;;;;3.73;2.50;;;;;;;19.63;64.20;100486.48;1662208;84;21093;-69
2022/07/07 06:22:19;;;;;;;5.63;2.43;;;;;;;19.66;63.77;100486.41;1657982;84;21089;-69
2022/07/07 06:24:46;;;;;;;3.67;2.40;;;;;;;19.75;63.78;100488.56;1660543;84;21123;-68
2022/07/07 06:27:13;;;;;;;2.77;2.20;;;;;;;19.80;63.73;100497.08;1660480;84;21089;-68
2022/07/07 06:29:41;;;;;;;2.63;2.20;;;;;;;19.86;63.57;100498.50;1660878;84;21073;-69
2022/07/07 06:32:08;;;;;;;3.90;2.40;;;;;;;19.90;63.62;100498.09;1660389;84;21256;-69
2022/07/07 06:34:34;;;;;;;3.17;2.23;;;;;;;19.96;63.01;100497.38;1659305;84;21056;-68
2022/07/07 06:37:01;;;;;;;4.13;2.37;;;;;;;20.00;62.79;100501.03;1660752;84;21698;-69
2022/07/07 06:39:27;;;;;;;2.83;2.10;;;;;;;20.20;61.86;100500.91;1655716;84;21160;-69
2022/07/07 06:41:54;;;;;;;3.13;2.17;;;;;;;20.22;61.53;100508.97;1659275;84;21273;-68
2022/07/07 06:44:20;;;;;;;3.10;2.10;;;;;;;20.20;61.44;100516.62;1660073;84;21441;-68
2022/07/07 06:46:47;;;;;;;2.90;1.90;;;;;;;20.19;61.43;100508.82;1664659;84;21388;-68
2022/07/07 06:49:13;;;;;;;2.13;1.67;;;;;;;20.21;61.52;100507.39;1665774;86;21006;-69
2022/07/07 06:51:40;;;;;;;2.67;2.00;;;;;;;20.26;61.70;100507.20;1662332;84;21140;-68
2022/07/07 06:54:06;;;;;;;2.90;2.00;;;;;;;20.30;61.58;100499.20;1634233;84;21162;-69
2022/07/07 06:56:36;;;;;;;2.33;1.80;;;;;;;20.11;62.16;100498.23;1660655;84;22506;-69
2022/07/07 06:59:03;;;;;;;4.63;1.80;;;;;;;20.10;62.37;100500.16;1661493;84;21600;-68
2022/07/07 07:01:31;;;;;;;2.93;1.77;;;;;;;20.16;62.16;100500.77;1660234;84;21926;-68
2022/07/07 07:03:57;;;;;;;3.53;1.70;;;;;;;20.21;61.78;100493.03;1660018;84;21553;-70
2022/07/07 07:06:25;;;;;;;4.40;1.77;;;;;;;20.24;61.87;100502.67;1662207;84;21558;-69
2022/07/07 07:08:52;;;;;;;2.87;1.60;;;;;;;20.29;61.80;100500.34;1660996;84;21152;-70
2022/07/07 07:11:19;;;;;;;2.73;1.70;;;;;;;20.33;61.74;100499.36;1660050;84;21090;-68
2022/07/07 07:13:47;;;;;;;3.83;1.97;;;;;;;20.39;61.93;100496.70;1662638;84;22184;-69
2022/07/07 07:16:15;;;;;;;3.10;1.90;;;;;;;20.45;61.82;100493.27;1658160;84;20994;-68
2022/07/07 07:18:42;;;;;;;2.20;1.70;;;;;;;20.53;61.34;100495.20;1660212;84;21241;-70
2022/07/07 07:21:09;;;;;;;6.53;1.60;;;;;;;20.55;61.00;100506.50;1660441;84;21010;-67
2022/07/07 07:23:37;;;;;;;3.93;1.60;;;;;;;20.58;60.71;100508.56;1660390;84;21459;-69
2022/07/07 07:26:07;;;;;;;3.43;1.57;;;;;;;20.56;60.77;100507.30;1658213;84;21243;-69
2022/07/07 07:28:34;;;;;;;4.20;1.80;;;;;;;20.57;60.79;100500.20;1665766;84;21087;-69
2022/07/07 07:31:01;;;;;;;2.37;1.60;;;;;;;20.61;61.21;100505.77;1666191;86;21307;-68
2022/07/07 07:33:31;;;;;;;3.33;1.40;;;;;;;20.73;61.32;100514.03;1665621;86;21004;-69
2022/07/07 07:35:59;;;;;;;3.43;1.40;;;;;;;20.84;60.94;100512.53;1663833;84;21033;-68
2022/07/07 07:38:26;;;;;;;4.63;1.50;;;;;;;20.93;60.84;100511.70;1659220;84;21537;-69
2022/07/07 07:40:52;;;;;;;2.10;1.50;;;;;;;20.97;60.43;100519.42;1659939;84;21095;-68
2022/07/07 07:43:19;;;;;;;3.10;1.50;;;;;;;20.96;60.09;100517.27;1660696;84;21938;-68
2022/07/07 07:45:45;;;;;;;3.50;1.77;;;;;;;20.93;59.94;100521.20;1659453;84;21031;-68
2022/07/07 07:48:12;;;;;;;4.67;1.60;;;;;;;20.92;60.01;100522.31;1661656;84;21034;-67
2022/07/07 07:50:39;;;;;;;3.53;1.70;;;;;;;20.90;60.05;100522.65;1663756;84;20989;-68
2022/07/07 07:53:08;;;;;;;1.90;1.60;;;;;;;20.92;60.02;100519.59;1659046;84;21018;-69
2022/07/07 07:55:35;;;;;;;2.30;1.50;;;;;;;20.95;59.85;100526.52;1662576;84;21269;-69
2022/07/07 07:58:04;;;;;;;2.70;1.50;;;;;;;21.00;59.62;100522.84;1661550;84;21075;-68
2022/07/07 08:00:31;;;;;;;2.33;1.40;;;;;;;21.05;59.29;100519.36;1664801;84;21046;-68
2022/07/07 08:02:59;;;;;;;3.63;1.70;;;;;;;21.13;59.14;100524.52;1665798;86;20994;-69
2022/07/07 08:05:30;;;;;;;4.57;1.60;;;;;;;21.40;58.58;100520.53;1662116;84;21085;-69
2022/07/07 08:07:56;;;;;;;3.20;1.50;;;;;;;21.37;58.63;100520.41;1656802;84;21156;-69
2022/07/07 08:10:24;;;;;;;2.70;1.53;;;;;;;21.44;58.75;100518.73;1659445;84;21402;-70
2022/07/07 08:12:51;;;;;;;3.90;1.37;;;;;;;21.58;58.01;100527.19;1659588;84;21049;-68
2022/07/07 08:15:18;;;;;;;2.00;1.37;;;;;;;21.58;58.03;100525.27;1660432;84;21108;-68
2022/07/07 08:17:48;;;;;;;3.47;1.50;;;;;;;21.68;57.66;100526.22;1659798;84;21095;-68
2022/07/07 08:20:15;;;;;;;2.83;1.70;;;;;;;21.68;57.81;100527.58;1660130;84;21241;-68
2022/07/07 08:22:42;;;;;;;3.97;1.73;;;;;;;21.74;57.54;100532.26;1659327;84;21288;-70
2022/07/07 08:25:08;;;;;;;3.30;1.70;;;;;;;21.79;57.17;100534.79;1660321;84;21087;-69
2022/07/07 08:27:35;;;;;;;4.27;1.60;;;;;;;21.76;57.28;100536.24;1659176;84;21050;-69
2022/07/07 08:30:01;;;;;;;2.37;1.50;;;;;;;21.87;57.40;100540.70;1660659;84;21043;-68
2022/07/07 08:32:28;;;;;;;2.30;1.53;;;;;;;21.88;57.52;100538.77;1665723;86;21626;-69
2022/07/07 08:34:55;;;;;;;2.97;1.90;;;;;;;21.89;56.67;100541.17;1665795;86;21085;-68
2022/07/07 08:37:22;;;;;;;2.87;1.70;;;;;;;21.96;56.76;100535.98;1660246;84;21035;-69
2022/07/07 08:39:49;;;;;;;3.80;1.67;;;;;;;22.04;56.37;100538.38;1660150;84;21073;-69
2022/07/07 08:42:16;;;;;;;2.73;1.83;;;;;;;22.08;56.19;100539.33;1660959;84;21069;-69
2022/07/07 08:44:42;;;;;;;2.50;1.47;;;;;;;22.03;56.43;100540.09;1665157;86;21099;-68
2022/07/07 08:47:10;;;;;;;2.33;1.50;;;;;;;22.24;55.85;100541.68;1664382;85;21101;-68
2022/07/07 08:49:38;;;;;;;2.10;1.60;;;;;;;22.32;55.26;100541.35;1664088;84;21073;-68
2022/07/07 08:52:05;;;;;;;2.20;1.30;;;;;;;22.36;54.95;100544.19;1665371;86;21030;-68
2022/07/07 08:54:32;;;;;;;3.47;1.50;;;;;;;22.44;54.76;100540.56;1665507;86;21666;-68
2022/07/07 08:56:59;;;;;;;2.17;1.40;;;;;;;22.58;54.17;100545.72;1661773;84;21110;-68
2022/07/07 08:59:26;;;;;;;2.23;1.20;;;;;;;22.61;53.95;100548.55;1659821;84;21154;-69
2022/07/07 09:01:58;;;;;;;2.13;1.50;;;;;;;22.61;53.98;100556.72;1661714;84;21006;-69
2022/07/07 09:04:25;;;;;;;1.87;1.40;;;;;;;22.63;53.90;100561.81;1660184;84;21150;-68
2022/07/07 09:06:56;;;;;;;2.10;1.40;;;;;;;22.62;53.50;100555.58;1661395;84;21068;-70
2022/07/07 09:09:45;;;;;;;3.17;1.70;;;;;;;22.64;53.71;100562.86;1660796;84;21109;-70
2022/07/07 09:12:15;;;;;;;2.40;1.53;;;;;;;22.64;53.17;100558.77;1682678;85;21079;-69
2022/07/07 09:14:47;;;;;;;2.37;1.30;;;;;;;22.61;53.04;100568.19;1679760;85;21030;-70
2022/07/07 09:17:27;;;;;;;1.85;1.30;;;;;;;22.67;53.21;100573.07;1631009;86;21572;-69
2022/07/07 09:20:00;;;;;;;3.03;1.40;;;;;;;22.76;52.71;100565.35;1630820;86;20916;-70
2022/07/07 09:22:51;;;;;;;2.17;1.60;;;;;;;22.86;52.81;100567.62;1631717;86;22209;-68
2022/07/07 09:25:21;;;;;;;1.80;1.30;;;;;;;23.02;52.72;100567.21;1631488;86;20943;-69
2022/07/07 09:28:03;;;;;;;2.47;1.50;;;;;;;23.17;52.07;100569.27;1646064;86;21101;-68
2022/07/07 09:30:49;;;;;;;2.00;1.17;;;;;;;23.28;51.71;100582.42;1653510;86;21328;-69
2022/07/07 09:33:20;;;;;;;2.07;1.37;;;;;;;23.39;51.69;100576.72;1678616;85;21425;-69
2022/07/07 09:38:37;;;;;;;3.97;1.10;;;;;;;23.76;51.06;100567.15;1684942;85;21043;-69
2022/07/07 09:41:17;;;;;;;2.23;1.20;;;;;;;23.98;49.48;100570.68;1685115;85;21052;-69
2022/07/07 09:43:54;;;;;;;2.23;1.30;;;;;;;24.05;49.24;100558.63;1638757;85;21022;-69
2022/07/07 09:46:35;;;;;;;1.60;1.20;;;;;;;24.07;49.05;100568.61;1658594;86;21122;-69
2022/07/07 09:49:12;;;;;;;1.80;1.33;;;;;;;24.22;49.35;100567.62;1641597;87;21322;-68
2022/07/07 09:51:40;;;;;;;2.50;1.70;;;;;;;24.43;48.40;100567.44;1676276;84;21128;-68
2022/07/07 09:54:15;;;;;;;2.30;1.40;;;;;;;24.52;48.48;100569.44;1661502;86;21091;-68
2022/07/07 09:56:45;;;;;;;2.60;1.20;;;;;;;24.56;48.47;100564.28;1665422;85;21022;-69
2022/07/07 09:59:16;;;;;;;2.80;1.30;;;;;;;24.66;47.93;100562.17;1665585;86;21251;-69
2022/07/07 10:01:47;;;;;;;2.80;1.30;;;;;;;24.60;48.33;100572.56;1641537;87;21141;-69
2022/07/07 10:04:19;;;;;;;;;;;;;;;24.65;47.72;100562.75;1645823;85;22245;-69
2022/07/07 10:06:46;;;;;;;1.97;1.30;;;;;;;24.70;48.12;100557.59;1648225;85;20191;-69
2022/07/07 10:09:20;;;;;;;2.53;1.30;;;;;;;24.81;48.08;100554.56;1647943;85;21913;-68
2022/07/07 10:11:52;;;;;;;3.00;1.20;;;;;;;24.94;47.93;100560.15;1644537;85;21119;-68
2022/07/07 10:14:36;;;;;;;2.40;1.30;;;;;;;25.10;47.67;100548.39;1648468;85;21141;-69
2022/07/07 10:17:04;;;;;;;2.53;1.33;;;;;;;25.15;47.36;100551.67;1641769;85;22388;-69
2022/07/07 10:19:31;;;;;;;2.57;1.70;;;;;;;25.13;47.09;100552.59;1647638;85;21501;-69
2022/07/07 10:21:58;;;;;;;2.50;1.50;;;;;;;25.13;47.19;100548.50;1648240;85;21057;-69
2022/07/07 10:24:29;;;;;;;1.50;1.40;;;;;;;25.18;47.44;100549.59;1647815;85;21097;-69
2022/07/07 10:26:59;;;;;;;1.80;1.35;;;;;;;25.15;47.53;100551.67;1642576;85;26677;-69
2022/07/07 10:29:53;;;;;;;2.20;1.40;;;;;;;25.17;47.51;100548.02;1648301;85;21542;-68
2022/07/07 10:32:37;;;;;;;2.30;1.40;;;;;;;25.26;47.02;100547.23;1648301;85;21116;-68
2022/07/07 10:35:12;;;;;;;2.30;1.43;;;;;;;25.36;46.67;100552.72;1647188;85;21604;-68
2022/07/07 10:37:45;;;;;;;3.03;1.43;;;;;;;25.45;45.90;100555.26;1648561;85;21114;-69
2022/07/07 10:40:31;;;;;;;2.17;1.37;;;;;;;25.45;45.57;100552.53;1645274;85;21131;-69
2022/07/07 10:43:08;;;;;;;2.40;1.30;;;;;;;25.41;45.62;100558.50;1648666;85;21019;-68
2022/07/07 10:45:35;;;;;;;2.60;1.37;;;;;;;25.41;44.78;100557.92;1648289;85;21027;-69
2022/07/07 10:48:07;;;;;;;3.50;1.23;;;;;;;25.55;45.17;100559.37;1620895;85;21628;-68
2022/07/07 10:50:34;;;;;;;2.70;1.30;;;;;;;25.63;44.55;100561.09;1650613;85;21027;-70
2022/07/07 10:53:01;;;;;;;2.60;1.20;;;;;;;25.62;44.68;100564.41;1658002;85;21625;-69
2022/07/07 10:55:56;;;;;;;2.37;1.40;;;;;;;25.61;44.34;100566.16;1648278;85;21063;-70
2022/07/07 10:58:59;;;;;;;2.40;1.40;;;;;;;25.58;43.74;100564.92;1634790;86;21566;-70
2022/07/07 11:01:30;;;;;;;3.03;1.20;;;;;;;25.63;43.67;100570.13;1637694;86;21044;-68
2022/07/07 11:03:57;;;;;;;1.87;1.40;;;;;;;25.76;43.61;100565.86;1646740;87;21559;-68
2022/07/07 11:06:23;;;;;;;1.80;1.30;;;;;;;25.88;43.52;100565.17;1646215;87;21495;-69
2022/07/07 11:09:01;;;;;;;2.23;1.40;;;;;;;25.99;43.82;100579.64;1643538;86;21618;-69
2022/07/07 11:11:30;;;;;;;3.63;1.50;;;;;;;25.94;44.41;100564.32;1647315;87;21141;-69
2022/07/07 11:14:09;;;;;;;1.73;1.53;;;;;;;25.80;44.05;100561.25;1603091;87;21219;-69
2022/07/07 11:16:37;;;;;;;3.17;1.70;;;;;;;25.82;44.47;100561.72;1645980;87;21060;-69
2022/07/07 11:19:04;;;;;;;2.30;1.47;;;;;;;25.86;44.13;100557.89;1658381;86;21128;-69
2022/07/07 11:21:38;;;;;;;3.70;1.50;;;;;;;25.76;44.21;100557.07;1658476;86;21074;-68
2022/07/07 11:24:22;;;;;;;3.37;1.40;;;;;;;25.65;44.35;100565.06;1658458;85;21086;-68
2022/07/07 11:26:59;;;;;;;4.00;1.40;;;;;;;25.61;44.42;100560.10;1658820;86;21636;-70
2022/07/07 11:29:25;;;;;;;2.43;1.50;;;;;;;25.55;44.53;100562.90;1658141;86;21581;-69
2022/07/07 11:32:05;;;;;;;4.73;1.60;;;;;;;25.52;44.52;100561.46;1658973;86;21065;-68
2022/07/07 11:34:44;;;;;;;1.92;1.52;;;;;;;25.58;44.44;100557.30;1658323;86;21086;-69
2022/07/07 11:37:25;;;;;;;1.83;1.27;;;;;;;25.71;44.52;100561.48;1658850;85;21589;-69
2022/07/07 11:39:52;;;;;;;2.63;1.20;;;;;;;25.90;43.86;100571.09;1658579;85;21000;-68
2022/07/07 11:42:19;;;;;;;1.67;1.30;;;;;;;26.05;43.06;100565.89;1644420;86;21130;-69
2022/07/07 11:44:46;;;;;;;2.00;1.40;;;;;;;26.12;43.44;100566.80;1653542;86;21841;-68
2022/07/07 11:47:13;;;;;;;1.23;1.10;;;;;;;26.11;43.03;100573.44;1658769;86;21031;-68
2022/07/07 11:49:40;;;;;;;2.70;1.20;;;;;;;26.10;42.88;100569.71;1658465;86;20991;-68
2022/07/07 11:52:16;;;;;;;2.17;1.30;;;;;;;26.18;43.71;100571.42;1658380;86;21046;-69
2022/07/07 11:54:47;;;;;;;1.60;1.27;;;;;;;26.46;42.55;100575.85;1658663;86;21066;-68
2022/07/07 11:57:33;;;;;;;3.17;1.20;;;;;;;26.59;41.83;100580.03;1654280;84;21289;-69
2022/07/07 12:00:19;;;;;;;1.10;1.00;;;;;;;26.56;41.85;100571.17;1653954;84;21447;-68
2022/07/07 12:02:48;;;;;;;3.50;1.33;;;;;;;26.54;41.62;100568.78;1656564;84;21050;-69
2022/07/07 12:05:21;;;;;;;1.70;1.03;;;;;;;26.60;41.77;100569.27;1658622;86;20979;-68
2022/07/07 12:08:01;;;;;;;2.60;1.20;;;;;;;26.73;40.52;100561.66;1655572;84;21527;-69
2022/07/07 12:10:31;;;;;;;2.40;1.27;;;;;;;26.75;40.93;100562.88;1650832;84;21092;-68
2022/07/07 12:13:10;;;;;;;3.40;1.10;;;;;;;26.75;41.53;100573.03;1655825;84;21037;-69
2022/07/07 12:15:46;;;;;;;1.10;1.00;;;;;;;26.90;40.91;100572.90;1658439;86;21081;-68
2022/07/07 12:18:33;;;;;;;2.23;1.00;;;;;;;26.91;41.63;100570.94;1657215;86;21030;-69
2022/07/07 12:21:04;;;;;;;1.90;0.97;;;;;;;27.09;40.05;100565.17;1634648;86;21042;-69
2022/07/07 12:23:41;;;;;;;2.53;0.90;;;;;;;27.11;39.48;100566.16;1658651;86;21160;-71
2022/07/07 12:26:16;;;;;;;2.20;0.97;;;;;;;27.05;39.52;100571.77;1658320;85;21067;-68
2022/07/07 12:28:43;;;;;;;2.53;1.10;;;;;;;27.07;39.52;100562.58;1658484;86;21644;-70
2022/07/07 12:31:19;;;;;;;2.37;1.00;;;;;;;27.08;39.15;100565.52;1658472;86;21110;-68
2022/07/07 12:33:46;;;;;;;1.03;0.83;;;;;;;27.16;39.26;100559.03;1658526;86;21545;-69
2022/07/07 12:36:24;;;;;;;2.07;1.20;;;;;;;27.37;39.13;100564.02;1658539;85;21275;-67
2022/07/07 12:38:57;;;;;;;1.40;1.00;;;;;;;27.52;38.44;100560.90;1658328;86;21031;-69
2022/07/07 12:41:39;;;;;;;1.53;1.00;;;;;;;27.52;38.49;100557.57;1655076;84;21185;-69
2022/07/07 12:44:22;;;;;;;1.83;1.00;;;;;;;27.60;39.16;100559.81;1658264;86;21035;-69
2022/07/07 12:46:50;;;;;;;1.90;0.93;;;;;;;27.65;38.40;100567.73;1658473;86;21083;-69
2022/07/07 12:49:16;;;;;;;2.33;1.10;;;;;;;27.62;37.38;100560.83;1657733;86;21119;-70
2022/07/07 12:51:49;;;;;;;2.27;0.97;;;;;;;27.48;37.88;100564.18;1658646;86;46906;-68
2022/07/07 12:54:26;;;;;;;1.97;1.20;;;;;;;27.35;38.52;100554.80;1658487;86;21091;-69
2022/07/07 12:57:06;;;;;;;4.17;1.10;;;;;;;27.16;39.39;100559.61;1657466;86;21091;-68
2022/07/07 12:59:44;;;;;;;2.97;1.20;;;;;;;26.98;39.55;100562.04;1656809;86;21094;-70
2022/07/07 13:02:13;;;;;;;2.47;1.07;;;;;;;26.86;38.98;100566.58;1658887;85;21916;-69
2022/07/07 13:04:42;;;;;;;1.23;0.90;;;;;;;26.67;39.18;100551.58;1658349;85;21082;-69
2022/07/07 13:07:10;;;;;;;4.00;1.20;;;;;;;26.61;40.00;100548.93;1661414;84;21057;-69
2022/07/07 13:09:37;;;;;;;1.80;1.10;;;;;;;26.72;39.06;100554.03;1653992;85;21145;-69
2022/07/07 13:12:07;;;;;;;2.10;0.90;;;;;;;26.78;39.15;100555.86;1653950;84;21040;-69
2022/07/07 13:14:33;;;;;;;1.80;1.10;;;;;;;26.62;39.23;100550.50;1665263;84;21672;-69
2022/07/07 13:17:01;;;;;;;4.33;1.30;;;;;;;26.60;39.04;100541.87;1652773;84;21553;-70
2022/07/07 13:19:28;;;;;;;2.63;1.20;;;;;;;26.55;39.43;100550.39;1653042;84;21137;-69
2022/07/07 13:21:54;;;;;;;2.47;1.13;;;;;;;26.72;39.02;100551.28;1656035;84;20996;-70
2022/07/07 13:24:21;;;;;;;2.00;1.10;;;;;;;26.78;38.77;100543.52;1653652;84;21020;-69
2022/07/07 13:26:47;;;;;;;2.03;1.10;;;;;;;26.76;39.36;100550.76;1653189;84;21250;-69
2022/07/07 13:29:18;;;;;;;3.97;1.20;;;;;;;26.82;39.26;100553.41;1655139;84;21067;-68
2022/07/07 13:31:46;;;;;;;2.50;1.00;;;;;;;26.83;38.94;100541.27;1653867;84;21588;-69
2022/07/07 13:34:13;;;;;;;1.40;1.00;;;;;;;26.81;38.73;100543.58;1650704;84;21026;-70
2022/07/07 13:36:40;;;;;;;1.00;0.80;;;;;;;26.79;38.81;100533.58;1656889;84;21045;-70
2022/07/07 13:39:07;;;;;;;2.43;1.10;;;;;;;26.83;38.73;100533.64;1650977;84;21797;-69
2022/07/07 13:41:34;;;;;;;2.77;1.10;;;;;;;26.84;38.44;100530.52;1651473;84;21462;-69
2022/07/07 13:44:01;;;;;;;1.50;1.00;;;;;;;26.88;39.01;100529.20;1626700;84;21057;-69
2022/07/07 13:46:30;;;;;;;1.03;0.90;;;;;;;27.04;38.32;100522.98;1653953;84;21038;-69
2022/07/07 13:48:56;;;;;;;1.97;1.03;;;;;;;27.16;38.20;100524.76;1652316;84;21083;-69
2022/07/07 13:51:23;;;;;;;1.50;1.00;;;;;;;27.21;38.10;100520.30;1657611;84;21491;-69
2022/07/07 13:53:50;;;;;;;2.50;1.20;;;;;;;27.25;37.69;100519.80;1646620;84;21533;-67
2022/07/07 13:56:17;;;;;;;2.80;1.20;;;;;;;27.24;37.71;100521.52;1651560;84;21034;-69
2022/07/07 13:58:43;;;;;;;1.67;1.00;;;;;;;27.44;37.54;100513.36;1652397;84;21396;-69
2022/07/07 14:01:10;;;;;;;2.13;1.10;;;;;;;27.59;37.03;100526.69;1654425;84;21061;-68
2022/07/07 14:03:37;;;;;;;1.60;1.00;;;;;;;27.67;37.12;100513.84;1626342;84;21386;-68
2022/07/07 14:06:05;;;;;;;1.20;0.90;;;;;;;27.76;36.72;100517.90;1653641;84;21039;-69
2022/07/07 14:08:32;;;;;;;1.87;1.00;;;;;;;27.83;36.60;100519.34;1651333;84;21106;-69
2022/07/07 14:10:58;;;;;;;1.37;0.90;;;;;;;27.93;35.92;100523.97;1654014;84;21081;-69
2022/07/07 14:13:26;;;;;;;2.73;1.00;;;;;;;27.82;36.46;100527.97;1656843;84;21465;-69
2022/07/07 14:15:52;;;;;;;3.37;1.30;;;;;;;27.83;36.96;100519.94;1656617;84;21116;-70
2022/07/07 14:18:20;;;;;;;1.97;1.00;;;;;;;27.85;36.84;100524.48;1535799;84;10000006;-69
2022/07/07 14:20:46;;;;;;;1.30;1.00;;;;;;;27.91;36.44;100518.08;1654206;84;21024;-68
2022/07/07 14:23:12;;;;;;;3.03;1.00;;;;;;;27.90;36.57;100519.22;1666273;84;22316;-68
2022/07/07 14:25:40;;;;;;;2.97;1.17;;;;;;;27.94;36.61;100514.00;1652306;84;21257;-68
2022/07/07 14:28:07;;;;;;;1.77;0.90;;;;;;;28.09;36.34;100520.41;1655322;86;21094;-69
2022/07/07 14:30:35;;;;;;;1.53;1.00;;;;;;;28.37;36.34;100525.40;1656385;86;21507;-68
2022/07/07 14:33:03;;;;;;;2.73;1.00;;;;;;;28.69;35.83;100524.33;1652677;86;22092;-70
2022/07/07 14:35:30;;;;;;;2.10;0.93;;;;;;;28.94;34.95;100529.98;1653004;86;21051;-68
2022/07/07 14:37:57;;;;;;;2.37;1.07;;;;;;;29.01;34.95;100533.41;1654443;86;21242;-68
2022/07/07 14:40:24;;;;;;;1.97;1.00;;;;;;;28.97;35.19;100532.56;1656677;85;21124;-69
2022/07/07 14:42:51;;;;;;;1.77;1.10;;;;;;;28.85;34.99;100533.66;1660029;84;21711;-69
2022/07/07 14:45:18;;;;;;;2.33;1.00;;;;;;;28.58;35.22;100542.67;1652773;85;21402;-69
2022/07/07 14:47:44;;;;;;;1.37;1.00;;;;;;;28.31;35.66;100535.15;1649427;84;21078;-68
2022/07/07 14:50:11;;;;;;;1.20;1.00;;;;;;;28.06;36.12;100546.66;1650577;84;21133;-68
2022/07/07 14:52:39;;;;;;;1.20;0.93;;;;;;;27.93;36.26;100542.59;1649110;84;22397;-69
2022/07/07 14:55:06;;;;;;;2.20;0.90;;;;;;;27.95;36.47;100543.61;1657211;84;21251;-68
2022/07/07 14:57:33;;;;;;;1.60;0.87;;;;;;;27.76;36.54;100546.72;1652998;86;21047;-68
2022/07/07 14:59:59;;;;;;;1.57;0.93;;;;;;;27.57;37.53;100548.20;1669720;84;21127;-68
2022/07/07 15:02:27;;;;;;;3.20;1.00;;;;;;;27.44;37.27;100547.65;1639873;86;21611;-68
2022/07/07 15:04:56;;;;;;;2.50;1.03;;;;;;;27.31;37.41;100548.48;1670917;84;21048;-69
2022/07/07 15:07:23;;;;;;;3.47;1.07;;;;;;;27.25;37.60;100554.66;1668049;84;21064;-69
2022/07/07 15:09:51;;;;;;;2.80;0.93;;;;;;;27.36;38.01;100546.77;1657888;86;21038;-69
2022/07/07 15:12:21;;;;;;;2.37;1.00;;;;;;;27.63;37.39;100540.45;1673009;84;21630;-68
2022/07/07 15:14:47;;;;;;;1.40;0.80;;;;;;;27.82;36.23;100534.83;1676467;84;21205;-69
2022/07/07 15:17:16;;;;;;;2.07;1.20;;;;;;;27.95;35.63;100535.37;1667546;84;21644;-68
2022/07/07 15:19:43;;;;;;;1.60;1.00;;;;;;;28.06;35.60;100529.40;1660169;84;21416;-69
2022/07/07 15:22:09;;;;;;;1.97;0.90;;;;;;;27.97;35.79;100528.91;1667252;85;21047;-69
2022/07/07 15:24:36;;;;;;;2.23;1.00;;;;;;;28.13;35.83;100524.56;1660442;86;21058;-69
2022/07/07 15:27:03;;;;;;;6.70;1.10;;;;;;;28.46;35.21;100531.96;1664101;86;21280;-70
2022/07/07 15:29:30;;;;;;;1.30;1.00;;;;;;;28.61;35.26;100535.64;1632564;87;21162;-69
2022/07/07 15:31:57;;;;;;;1.13;0.80;;;;;;;28.64;35.17;100531.54;1626818;86;22198;-70
2022/07/07 15:34:24;;;;;;;3.40;1.03;;;;;;;28.57;34.97;100534.83;1663137;86;21070;-70
2022/07/07 15:36:51;;;;;;;3.87;1.10;;;;;;;28.40;35.27;100537.63;1661769;86;20990;-69